createdAt,value
2018-07-27T00:00:20.774Z,1015.63
2018-07-27T00:01:20.751Z,1015.63
2018-07-27T00:02:20.934Z,1015.58
2018-07-27T00:03:20.920Z,1015.59
2018-07-27T00:04:20.892Z,1015.57
2018-07-27T00:05:20.674Z,1015.58
2018-07-27T00:06:23.273Z,1015.58
2018-07-27T00:07:20.834Z,1015.55
2018-07-27T00:08:20.815Z,1015.57
2018-07-27T00:09:20.796Z,1015.56
2018-07-27T00:10:20.774Z,1015.55
2018-07-27T00:11:20.557Z,1015.54
2018-07-27T00:12:20.530Z,1015.51
2018-07-27T00:13:20.509Z,1015.57
2018-07-27T00:14:20.488Z,1015.56
2018-07-27T00:15:20.471Z,1015.54
2018-07-27T00:16:20.654Z,1015.56
2018-07-27T00:17:20.429Z,1015.56
2018-07-27T00:18:20.411Z,1015.54
2018-07-27T00:19:20.393Z,1015.55
2018-07-27T00:20:20.369Z,1015.56
2018-07-27T00:21:20.352Z,1015.55
2018-07-27T00:22:20.328Z,1015.56
2018-07-27T00:23:20.308Z,1015.54
2018-07-27T00:24:20.288Z,1015.55
2018-07-27T00:25:20.265Z,1015.55
2018-07-27T00:26:20.249Z,1015.52
2018-07-27T00:27:20.230Z,1015.52
2018-07-27T00:28:20.204Z,1015.50
2018-07-27T00:29:20.186Z,1015.52
2018-07-27T00:30:20.165Z,1015.50
2018-07-27T00:31:20.144Z,1015.52
2018-07-27T00:32:20.125Z,1015.52
2018-07-27T00:33:20.102Z,1015.54
2018-07-27T00:34:20.088Z,1015.54
2018-07-27T00:35:20.064Z,1015.54
2018-07-27T00:36:20.041Z,1015.53
2018-07-27T00:37:20.031Z,1015.56
2018-07-27T00:38:20.003Z,1015.55
2018-07-27T00:39:19.980Z,1015.55
2018-07-27T00:40:19.967Z,1015.52
2018-07-27T00:41:19.943Z,1015.57
2018-07-27T00:42:19.929Z,1015.55
2018-07-27T00:43:19.900Z,1015.53
2018-07-27T00:44:19.879Z,1015.56
2018-07-27T00:45:19.858Z,1015.53
2018-07-27T00:46:19.840Z,1015.51
2018-07-27T00:47:19.817Z,1015.54
2018-07-27T00:48:19.797Z,1015.53
2018-07-27T00:49:19.778Z,1015.52
2018-07-27T00:50:19.759Z,1015.54
2018-07-27T00:51:19.739Z,1015.51
2018-07-27T00:52:19.716Z,1015.53
2018-07-27T00:53:19.694Z,1015.55
2018-07-27T00:54:19.674Z,1015.52
2018-07-27T00:55:19.652Z,1015.52
2018-07-27T00:56:19.632Z,1015.53
2018-07-27T00:57:19.614Z,1015.48
2018-07-27T00:58:19.593Z,1015.52
2018-07-27T00:59:19.573Z,1015.49
2018-07-27T01:00:19.553Z,1015.47
2018-07-27T01:01:19.528Z,1015.48
2018-07-27T01:02:19.714Z,1015.53
2018-07-27T01:03:19.699Z,1015.46
2018-07-27T01:04:19.467Z,1015.43
2018-07-27T01:05:19.651Z,1015.41
2018-07-27T01:06:19.430Z,1015.42
2018-07-27T01:07:19.412Z,1015.46
2018-07-27T01:08:19.387Z,1015.41
2018-07-27T01:09:19.367Z,1015.44
2018-07-27T01:10:19.347Z,1015.39
2018-07-27T01:11:19.329Z,1015.46
2018-07-27T01:12:19.302Z,1015.45
2018-07-27T01:13:19.483Z,1015.43
2018-07-27T01:14:19.263Z,1015.43
2018-07-27T01:15:19.238Z,1015.42
2018-07-27T01:16:19.218Z,1015.40
2018-07-27T01:17:19.201Z,1015.42
2018-07-27T01:18:19.181Z,1015.40
2018-07-27T01:19:19.157Z,1015.39
2018-07-27T01:20:19.136Z,1015.37
2018-07-27T01:21:19.114Z,1015.40
2018-07-27T01:22:19.095Z,1015.39
2018-07-27T01:23:19.072Z,1015.36
2018-07-27T01:24:19.051Z,1015.37
2018-07-27T01:25:19.030Z,1015.34
2018-07-27T01:26:19.017Z,1015.36
2018-07-27T01:27:19.192Z,1015.33
2018-07-27T01:28:18.968Z,1015.36
2018-07-27T01:29:18.949Z,1015.35
2018-07-27T01:30:18.932Z,1015.36
2018-07-27T01:31:18.907Z,1015.40
2018-07-27T01:32:18.888Z,1015.38
2018-07-27T01:33:18.865Z,1015.40
2018-07-27T01:34:18.845Z,1015.38
2018-07-27T01:35:18.830Z,1015.40
2018-07-27T01:36:18.802Z,1015.38
2018-07-27T01:37:18.784Z,1015.38
2018-07-27T01:38:18.765Z,1015.40
2018-07-27T01:39:18.751Z,1015.38
2018-07-27T01:40:18.726Z,1015.39
2018-07-27T01:41:18.705Z,1015.40
2018-07-27T01:42:18.685Z,1015.38
2018-07-27T01:43:18.663Z,1015.40
2018-07-27T01:44:18.639Z,1015.39
2018-07-27T01:45:18.615Z,1015.40
2018-07-27T01:46:18.597Z,1015.40
2018-07-27T01:47:18.773Z,1015.39
2018-07-27T01:48:18.553Z,1015.41
2018-07-27T01:49:18.532Z,1015.39
2018-07-27T01:50:18.513Z,1015.37
2018-07-27T01:51:18.531Z,1015.36
2018-07-27T01:52:18.477Z,1015.36
2018-07-27T01:53:18.449Z,1015.36
2018-07-27T01:54:18.428Z,1015.33
2018-07-27T01:55:18.411Z,1015.32
2018-07-27T01:56:18.385Z,1015.35
2018-07-27T01:57:18.364Z,1015.36
2018-07-27T01:58:18.343Z,1015.34
2018-07-27T01:59:18.323Z,1015.33
2018-07-27T02:00:18.303Z,1015.35
2018-07-27T02:01:18.283Z,1015.31
2018-07-27T02:02:18.267Z,1015.30
2018-07-27T02:03:18.240Z,1015.30
2018-07-27T02:04:18.220Z,1015.31
2018-07-27T02:05:18.399Z,1015.31
2018-07-27T02:06:18.178Z,1015.31
2018-07-27T02:07:18.153Z,1015.28
2018-07-27T02:08:18.134Z,1015.30
2018-07-27T02:09:18.115Z,1015.30
2018-07-27T02:10:18.095Z,1015.28
2018-07-27T02:11:18.080Z,1015.24
2018-07-27T02:12:18.056Z,1015.29
2018-07-27T02:13:18.034Z,1015.24
2018-07-27T02:14:18.011Z,1015.25
2018-07-27T02:15:17.988Z,1015.20
2018-07-27T02:16:18.170Z,1015.20
2018-07-27T02:17:17.945Z,1015.19
2018-07-27T02:18:17.926Z,1015.20
2018-07-27T02:19:17.903Z,1015.18
2018-07-27T02:20:17.882Z,1015.13
2018-07-27T02:21:17.863Z,1015.12
2018-07-27T02:22:17.843Z,1015.13
2018-07-27T02:23:18.024Z,1015.15
2018-07-27T02:24:17.800Z,1015.11
2018-07-27T02:25:17.780Z,1015.13
2018-07-27T02:26:17.756Z,1015.12
2018-07-27T02:27:17.734Z,1015.15
2018-07-27T02:28:17.712Z,1015.12
2018-07-27T02:29:17.700Z,1015.14
2018-07-27T02:30:17.672Z,1015.12
2018-07-27T02:31:17.650Z,1015.10
2018-07-27T02:32:17.635Z,1015.10
2018-07-27T02:33:17.609Z,1015.08
2018-07-27T02:34:17.589Z,1015.03
2018-07-27T02:35:17.568Z,1015.03
2018-07-27T02:36:17.545Z,1015.02
2018-07-27T02:37:17.523Z,1015.03
2018-07-27T02:38:17.503Z,1015.02
2018-07-27T02:39:17.481Z,1015.02
2018-07-27T02:40:17.461Z,1014.99
2018-07-27T02:41:17.447Z,1015.02
2018-07-27T02:42:17.420Z,1015.04
2018-07-27T02:43:17.398Z,1015.03
2018-07-27T02:44:17.377Z,1015.10
2018-07-27T02:45:17.359Z,1015.06
2018-07-27T02:46:17.337Z,1015.10
2018-07-27T02:47:17.316Z,1015.05
2018-07-27T02:48:17.294Z,1015.07
2018-07-27T02:49:17.269Z,1015.07
2018-07-27T02:50:17.248Z,1015.06
2018-07-27T02:51:17.232Z,1015.06
2018-07-27T02:52:17.205Z,1015.03
2018-07-27T02:53:17.190Z,1015.02
2018-07-27T02:54:17.165Z,1014.99
2018-07-27T02:55:17.143Z,1015.00
2018-07-27T02:56:17.122Z,1014.98
2018-07-27T02:57:17.103Z,1014.97
2018-07-27T02:58:17.083Z,1014.97
2018-07-27T02:59:17.057Z,1015.00
2018-07-27T03:00:17.037Z,1014.97
2018-07-27T03:01:17.019Z,1014.96
2018-07-27T03:02:16.996Z,1014.98
2018-07-27T03:03:17.176Z,1014.99
2018-07-27T03:04:16.957Z,1014.98
2018-07-27T03:05:16.930Z,1014.96
2018-07-27T03:06:16.908Z,1014.99
2018-07-27T03:07:16.885Z,1015.00
2018-07-27T03:08:16.865Z,1014.92
2018-07-27T03:09:16.857Z,1014.91
2018-07-27T03:10:16.826Z,1014.94
2018-07-27T03:11:16.804Z,1014.96
2018-07-27T03:12:16.787Z,1014.95
2018-07-27T03:13:16.760Z,1014.97
2018-07-27T03:14:16.739Z,1014.92
2018-07-27T03:15:16.718Z,1015.02
2018-07-27T03:16:16.700Z,1014.97
2018-07-27T03:17:16.673Z,1015.05
2018-07-27T03:18:16.653Z,1015.05
2018-07-27T03:19:16.631Z,1015.05
2018-07-27T03:20:16.611Z,1015.08
2018-07-27T03:21:16.591Z,1015.07
2018-07-27T03:22:17.175Z,1015.08
2018-07-27T03:23:16.759Z,1015.06
2018-07-27T03:24:16.729Z,1015.09
2018-07-27T03:25:16.503Z,1015.09
2018-07-27T03:26:16.684Z,1015.06
2018-07-27T03:27:16.669Z,1015.03
2018-07-27T03:28:16.439Z,1015.05
2018-07-27T03:29:16.622Z,1015.03
2018-07-27T03:30:16.399Z,1015.09
2018-07-27T03:31:16.375Z,1015.05
2018-07-27T03:32:16.761Z,1015.03
2018-07-27T03:33:16.535Z,1015.05
2018-07-27T03:34:16.313Z,1015.05
2018-07-27T03:35:16.493Z,1015.07
2018-07-27T03:36:16.674Z,1015.04
2018-07-27T03:37:16.451Z,1015.02
2018-07-27T03:38:16.483Z,1015.07
2018-07-27T03:39:16.405Z,1015.09
2018-07-27T03:40:16.389Z,1015.07
2018-07-27T03:41:16.366Z,1015.08
2018-07-27T03:42:58.494Z,1015.07
2018-07-27T03:43:58.481Z,1015.05
2018-07-27T03:45:40.604Z,1015.07
2018-07-27T03:48:05.498Z,1015.04
2018-07-27T03:49:05.070Z,1015.06
2018-07-27T03:50:04.845Z,1015.07
2018-07-27T03:51:04.825Z,1015.07
2018-07-27T03:52:04.807Z,1015.06
2018-07-27T03:53:04.779Z,1015.03
2018-07-27T03:54:04.557Z,1015.06
2018-07-27T03:55:04.533Z,1015.03
2018-07-27T03:56:04.512Z,1015.08
2018-07-27T03:57:04.489Z,1015.09
2018-07-27T03:58:04.468Z,1015.09
2018-07-27T03:59:04.653Z,1015.12
2018-07-27T04:00:04.679Z,1015.11
2018-07-27T04:01:04.405Z,1015.07
2018-07-27T04:02:04.383Z,1015.17
2018-07-27T04:03:04.361Z,1015.20
2018-07-27T04:04:04.340Z,1015.19
2018-07-27T04:05:04.319Z,1015.23
2018-07-27T04:06:04.295Z,1015.24
2018-07-27T04:07:04.274Z,1015.26
2018-07-27T04:08:04.251Z,1015.29
2018-07-27T04:09:04.230Z,1015.33
2018-07-27T04:10:04.212Z,1015.39
2018-07-27T04:11:04.193Z,1015.35
2018-07-27T04:12:04.170Z,1015.39
2018-07-27T04:13:04.148Z,1015.41
2018-07-27T04:14:04.135Z,1015.38
2018-07-27T04:15:04.188Z,1015.41
2018-07-27T04:16:04.084Z,1015.42
2018-07-27T04:17:04.062Z,1015.40
2018-07-27T04:18:04.043Z,1015.39
2018-07-27T04:19:04.020Z,1015.43
2018-07-27T04:20:04.002Z,1015.44
2018-07-27T04:21:03.978Z,1015.41
2018-07-27T04:22:03.959Z,1015.40
2018-07-27T04:23:04.091Z,1015.43
2018-07-27T04:24:03.927Z,1015.49
2018-07-27T04:25:03.898Z,1015.48
2018-07-27T04:26:03.878Z,1015.45
2018-07-27T04:27:03.855Z,1015.42
2018-07-27T04:28:03.836Z,1015.43
2018-07-27T04:29:03.817Z,1015.36
2018-07-27T04:30:03.799Z,1015.41
2018-07-27T04:31:03.776Z,1015.39
2018-07-27T04:32:03.755Z,1015.37
2018-07-27T04:33:03.735Z,1015.37
2018-07-27T04:34:03.716Z,1015.37
2018-07-27T04:35:03.695Z,1015.36
2018-07-27T04:36:03.677Z,1015.34
2018-07-27T04:37:03.656Z,1015.36
2018-07-27T04:38:03.637Z,1015.35
2018-07-27T04:39:03.615Z,1015.36
2018-07-27T04:40:03.594Z,1015.36
2018-07-27T04:41:03.573Z,1015.41
2018-07-27T04:42:03.555Z,1015.33
2018-07-27T04:43:03.838Z,1015.34
2018-07-27T04:44:03.518Z,1015.37
2018-07-27T04:45:03.497Z,1015.40
2018-07-27T04:46:03.477Z,1015.44
2018-07-27T04:47:03.661Z,1015.47
2018-07-27T04:48:03.436Z,1015.50
2018-07-27T04:49:03.417Z,1015.49
2018-07-27T04:50:03.398Z,1015.54
2018-07-27T04:51:03.583Z,1015.62
2018-07-27T04:52:03.563Z,1015.63
2018-07-27T04:53:03.346Z,1015.65
2018-07-27T04:54:03.528Z,1015.74
2018-07-27T04:55:03.503Z,1015.73
2018-07-27T04:56:03.283Z,1015.69
2018-07-27T04:57:03.262Z,1015.64
2018-07-27T04:58:03.247Z,1015.59
2018-07-27T04:59:03.228Z,1015.55
2018-07-27T05:00:03.211Z,1015.56
2018-07-27T05:01:03.188Z,1015.59
2018-07-27T05:02:03.171Z,1015.55
2018-07-27T05:03:03.351Z,1015.63
2018-07-27T05:04:03.180Z,1015.58
2018-07-27T05:05:03.316Z,1015.65
2018-07-27T05:06:03.294Z,1015.66
2018-07-27T05:07:03.074Z,1015.71
2018-07-27T05:08:03.057Z,1015.75
2018-07-27T05:09:03.238Z,1015.78
2018-07-27T05:10:03.019Z,1015.86
2018-07-27T05:11:45.374Z,1016.12
2018-07-27T05:12:45.138Z,1016.33
2018-07-27T05:13:45.325Z,1016.40
2018-07-27T05:14:45.103Z,1016.33
2018-07-27T05:15:45.286Z,1016.28
2018-07-27T05:16:45.066Z,1016.27
2018-07-27T05:17:45.249Z,1016.32
2018-07-27T05:18:45.234Z,1016.37
2018-07-27T05:19:45.211Z,1016.38
2018-07-27T05:20:45.191Z,1016.38
2018-07-27T05:21:45.173Z,1016.48
2018-07-27T05:22:45.157Z,1016.64
2018-07-27T05:23:44.936Z,1016.67
2018-07-27T05:24:45.125Z,1016.68
2018-07-27T05:25:46.114Z,1016.75
2018-07-27T05:26:45.085Z,1017.37
2018-07-27T05:28:27.220Z,1017.31
2018-07-27T05:29:27.208Z,1016.49
2018-07-27T05:30:26.982Z,1016.24
2018-07-27T05:31:27.169Z,1016.19
2018-07-27T05:32:26.948Z,1016.15
2018-07-27T05:33:26.934Z,1016.19
2018-07-27T05:34:26.965Z,1016.18
2018-07-27T05:35:29.718Z,1016.14
2018-07-27T05:36:27.087Z,1016.21
2018-07-27T05:37:26.857Z,1016.22
2018-07-27T05:38:26.840Z,1016.22
2018-07-27T05:39:27.028Z,1016.23
2018-07-27T05:40:26.807Z,1016.23
2018-07-27T05:41:29.620Z,1016.22
2018-07-27T05:42:26.772Z,1016.22
2018-07-27T05:43:26.754Z,1016.25
2018-07-27T05:44:26.942Z,1016.27
2018-07-27T05:45:26.719Z,1016.32
2018-07-27T05:46:26.702Z,1016.25
2018-07-27T05:47:26.687Z,1016.24
2018-07-27T05:48:26.666Z,1016.27
2018-07-27T05:49:26.853Z,1016.24
2018-07-27T05:50:26.842Z,1016.24
2018-07-27T05:51:26.617Z,1016.28
2018-07-27T05:52:26.601Z,1016.30
2018-07-27T05:53:26.583Z,1016.33
2018-07-27T05:54:26.565Z,1016.35
2018-07-27T05:55:26.548Z,1016.36
2018-07-27T05:56:26.531Z,1016.28
2018-07-27T05:57:26.514Z,1016.27
2018-07-27T05:58:26.498Z,1016.20
2018-07-27T05:59:26.501Z,1016.32
2018-07-27T06:00:26.468Z,1016.40
2018-07-27T06:01:26.650Z,1016.37
2018-07-27T06:02:26.432Z,1016.22
2018-07-27T06:03:26.418Z,1016.44
2018-07-27T06:04:26.401Z,1016.45
2018-07-27T06:05:26.383Z,1016.49
2018-07-27T06:06:26.368Z,1016.53
2018-07-27T06:07:26.359Z,1016.53
2018-07-27T06:08:26.337Z,1016.50
2018-07-27T06:09:26.318Z,1016.61
2018-07-27T06:11:08.680Z,1016.82
2018-07-27T06:12:08.444Z,1016.89
2018-07-27T06:13:08.426Z,1017.30
2018-07-27T06:14:08.615Z,1017.45
2018-07-27T06:15:08.397Z,1017.28
2018-07-27T06:16:08.381Z,1017.24
2018-07-27T06:17:08.368Z,1017.33
2018-07-27T06:18:08.640Z,1017.25
2018-07-27T06:19:08.534Z,1017.34
2018-07-27T06:20:08.318Z,1017.44
2018-07-27T06:21:08.512Z,1017.39
2018-07-27T06:22:08.501Z,1017.48
2018-07-27T06:23:08.477Z,1017.44
2018-07-27T06:24:08.582Z,1017.30
2018-07-27T06:25:08.442Z,1017.41
2018-07-27T06:26:08.427Z,1017.53
2018-07-27T06:27:08.411Z,1017.62
2018-07-27T06:28:08.217Z,1017.59
2018-07-27T06:29:08.447Z,1017.56
2018-07-27T06:30:08.161Z,1017.62
2018-07-27T06:31:08.348Z,1017.60
2018-07-27T06:33:32.648Z,1017.53
2018-07-27T06:34:32.431Z,1017.58
2018-07-27T06:35:32.617Z,1017.56
2018-07-27T06:36:32.408Z,1017.56
2018-07-27T06:37:32.387Z,1017.32
2018-07-27T06:38:32.574Z,1017.34
2018-07-27T06:39:32.358Z,1017.46
2018-07-27T06:40:32.340Z,1017.44
2018-07-27T06:41:32.327Z,1017.28
2018-07-27T06:42:32.520Z,1017.39
2018-07-27T06:43:32.295Z,1017.49
2018-07-27T06:56:29.181Z,1017.25
2018-07-27T06:57:29.175Z,1017.28
2018-07-27T06:58:28.947Z,1017.23
2018-07-27T06:59:28.934Z,1017.10
2018-07-27T07:00:28.920Z,1017.15
2018-07-27T07:01:28.902Z,1017.23
2018-07-27T07:02:29.195Z,1017.20
2018-07-27T07:03:28.891Z,1017.20
2018-07-27T07:04:28.858Z,1017.21
2018-07-27T07:05:29.046Z,1017.19
2018-07-27T07:06:29.031Z,1017.15
2018-07-27T07:07:29.019Z,1017.23
2018-07-27T07:08:29.005Z,1017.21
2018-07-27T07:09:28.990Z,1017.26
2018-07-27T07:10:28.978Z,1017.26
2018-07-27T07:11:28.965Z,1017.18
2018-07-27T07:12:28.952Z,1017.13
2018-07-27T07:13:28.935Z,1017.13
2018-07-27T07:14:28.935Z,1017.09
2018-07-27T07:15:28.707Z,1017.07
2018-07-27T07:16:32.322Z,1017.09
2018-07-27T07:17:28.880Z,1017.08
2018-07-27T07:18:28.663Z,1017.09
2018-07-27T07:19:28.649Z,1017.08
2018-07-27T07:23:59.637Z,1016.98
2018-07-27T07:24:59.623Z,1017.00
2018-07-27T07:25:59.940Z,1016.93
2018-07-27T07:26:59.397Z,1016.92
2018-07-27T07:27:59.584Z,1016.88
2018-07-27T07:31:08.677Z,1016.95
2018-07-27T07:32:06.037Z,1016.93
2018-07-27T07:33:06.032Z,1016.92
2018-07-27T07:35:21.587Z,1016.85
2018-07-27T07:36:18.949Z,1016.91
2018-07-27T07:37:18.936Z,1016.89
2018-07-27T07:38:18.927Z,1016.92
2018-07-27T07:39:18.913Z,1016.89
2018-07-27T07:40:18.899Z,1016.84
2018-07-27T07:41:18.893Z,1016.88
2018-07-27T07:42:18.877Z,1016.91
2018-07-27T07:43:18.861Z,1016.85
2018-07-27T07:44:18.848Z,1016.90
2018-07-27T07:45:18.836Z,1016.84
2018-07-27T07:46:18.624Z,1016.83
2018-07-27T07:47:18.816Z,1016.86
2018-07-27T07:48:18.597Z,1016.85
2018-07-27T07:49:18.623Z,1016.84
2018-07-27T07:50:18.776Z,1016.83
2018-07-27T07:51:18.766Z,1016.81
2018-07-27T07:52:18.551Z,1016.76
2018-07-27T07:53:18.539Z,1016.74
2018-07-27T07:54:18.526Z,1016.77
2018-07-27T07:55:18.521Z,1016.80
2018-07-27T07:56:18.500Z,1016.80
2018-07-27T07:57:18.698Z,1016.80
2018-07-27T07:58:18.680Z,1016.73
2018-07-27T07:59:18.475Z,1016.73
2018-07-27T08:00:18.455Z,1016.77
2018-07-27T08:01:18.449Z,1016.78
2018-07-27T08:02:18.631Z,1016.78
2018-07-27T08:03:18.620Z,1016.77
2018-07-27T08:04:21.252Z,1016.78
2018-07-27T08:05:18.596Z,1016.80
2018-07-27T08:06:18.589Z,1016.76
2018-07-27T08:07:18.575Z,1016.79
2018-07-27T08:08:18.566Z,1016.81
2018-07-27T08:09:18.552Z,1016.80
2018-07-27T08:10:18.541Z,1016.72
2018-07-27T08:11:18.538Z,1016.72
2018-07-27T08:15:49.323Z,1016.73
2018-07-27T08:16:49.312Z,1016.62
2018-07-27T08:17:49.099Z,1016.62
2018-07-27T08:18:49.292Z,1016.61
2018-07-27T08:19:49.283Z,1016.65
2018-07-27T08:20:49.268Z,1016.59
2018-07-27T08:21:49.261Z,1016.59
2018-07-27T08:22:49.245Z,1016.54
2018-07-27T08:23:49.242Z,1016.55
2018-07-27T08:24:49.238Z,1016.55
2018-07-27T08:25:49.655Z,1016.55
2018-07-27T08:26:49.204Z,1016.57
2018-07-27T08:27:49.193Z,1016.57
2018-07-27T08:29:32.151Z,1016.53
2018-07-27T08:31:13.498Z,1016.54
2018-07-27T08:32:16.104Z,1016.53
2018-07-27T08:33:13.269Z,1016.54
2018-07-27T08:34:13.263Z,1016.58
2018-07-27T08:35:13.250Z,1016.48
2018-07-27T08:36:13.445Z,1016.50
2018-07-27T08:37:13.432Z,1016.48
2018-07-27T08:38:13.220Z,1016.49
2018-07-27T08:39:13.409Z,1016.49
2018-07-27T08:40:13.196Z,1016.48
2018-07-27T08:41:13.190Z,1016.42
2018-07-27T08:42:13.383Z,1016.43
2018-07-27T08:43:13.172Z,1016.38
2018-07-27T08:44:13.160Z,1016.41
2018-07-27T08:45:13.147Z,1016.39
2018-07-27T08:47:13.341Z,1016.34
2018-07-27T08:48:13.318Z,1016.28
2018-07-27T08:49:13.311Z,1016.27
2018-07-27T08:56:50.587Z,1016.17
2018-07-27T08:59:32.727Z,1016.22
2018-07-27T09:02:14.867Z,1016.15
2018-07-27T09:03:14.665Z,1016.13
2018-07-27T09:04:14.853Z,1016.14
2018-07-27T09:05:57.000Z,1016.13
2018-07-27T09:06:56.987Z,1016.09
2018-07-27T09:07:57.127Z,1016.10
2018-07-27T09:08:56.969Z,1016.18
2018-07-27T09:09:56.762Z,1016.14
2018-07-27T09:10:56.955Z,1016.12
2018-07-27T09:11:56.747Z,1016.13
2018-07-27T09:12:56.721Z,1016.16
2018-07-27T09:13:56.718Z,1016.21
2018-07-27T09:14:56.699Z,1016.22
2018-07-27T09:15:56.693Z,1016.22
2018-07-27T09:16:56.681Z,1016.26
2018-07-27T09:17:56.670Z,1016.24
2018-07-27T09:18:56.659Z,1016.31
2018-07-27T09:19:56.681Z,1016.27
2018-07-27T09:20:56.639Z,1016.15
2018-07-27T09:21:56.630Z,1016.07
2018-07-27T09:22:56.621Z,1015.96
2018-07-27T09:23:56.609Z,1015.92
2018-07-27T09:24:56.932Z,1015.84
2018-07-27T09:25:56.585Z,1015.78
2018-07-27T09:26:56.576Z,1015.72
2018-07-27T09:27:56.570Z,1015.66
2018-07-27T09:28:56.559Z,1015.78
2018-07-27T09:29:56.550Z,1015.88
2018-07-27T09:30:56.541Z,1016.22
2018-07-27T09:31:56.529Z,1016.65
2018-07-27T09:32:56.517Z,1016.47
2018-07-27T09:33:56.510Z,1015.60
2018-07-27T09:34:56.501Z,1015.12
2018-07-27T09:35:56.491Z,1015.03
2018-07-27T09:36:56.525Z,1014.97
2018-07-27T09:37:56.471Z,1014.91
2018-07-27T09:38:56.460Z,1014.86
2018-07-27T09:39:56.451Z,1014.79
2018-07-27T09:40:56.445Z,1014.81
2018-07-27T09:41:56.436Z,1014.73
2018-07-27T09:42:56.426Z,1014.69
2018-07-27T09:43:56.420Z,1014.72
2018-07-27T09:44:56.410Z,1014.68
2018-07-27T09:45:56.399Z,1014.71
2018-07-27T09:46:56.393Z,1014.72
2018-07-27T09:47:56.385Z,1014.73
2018-07-27T09:48:56.377Z,1014.72
2018-07-27T09:49:56.367Z,1014.75
2018-07-27T09:50:56.356Z,1014.71
2018-07-27T09:51:56.349Z,1014.69
2018-07-27T09:52:56.341Z,1014.72
2018-07-27T09:53:56.406Z,1014.72
2018-07-27T09:54:56.324Z,1014.68
2018-07-27T09:55:56.314Z,1014.74
2018-07-27T09:56:56.309Z,1014.65
2018-07-27T09:57:56.371Z,1014.70
2018-07-27T09:58:56.288Z,1014.62
2018-07-27T09:59:56.280Z,1014.65
2018-07-27T10:00:56.275Z,1014.63
2018-07-27T10:01:56.266Z,1014.60
2018-07-27T10:02:56.257Z,1014.61
2018-07-27T10:03:56.251Z,1014.65
2018-07-27T10:04:56.241Z,1014.60
2018-07-27T10:05:56.231Z,1014.61
2018-07-27T10:06:56.223Z,1014.52
2018-07-27T10:07:56.213Z,1014.57
2018-07-27T10:08:56.216Z,1014.58
2018-07-27T10:09:56.198Z,1014.53
2018-07-27T10:10:56.189Z,1014.61
2018-07-27T10:11:56.182Z,1014.59
2018-07-27T10:12:56.232Z,1014.56
2018-07-27T10:13:56.174Z,1014.53
2018-07-27T10:14:56.156Z,1014.51
2018-07-27T10:15:56.151Z,1014.50
2018-07-27T10:16:56.143Z,1014.49
2018-07-27T10:17:56.132Z,1014.48
2018-07-27T10:18:56.123Z,1014.47
2018-07-27T10:19:56.133Z,1014.43
2018-07-27T10:20:56.106Z,1014.34
2018-07-27T10:21:56.112Z,1014.38
2018-07-27T10:22:56.088Z,1014.43
2018-07-27T10:23:56.080Z,1014.32
2018-07-27T10:24:56.075Z,1014.41
2018-07-27T10:25:56.073Z,1014.38
2018-07-27T10:26:56.053Z,1014.34
2018-07-27T10:27:56.046Z,1014.37
2018-07-27T10:28:56.040Z,1014.38
2018-07-27T10:29:56.032Z,1014.33
2018-07-27T10:30:56.022Z,1014.37
2018-07-27T10:31:56.019Z,1014.32
2018-07-27T10:32:56.004Z,1014.35
2018-07-27T10:33:55.995Z,1014.33
2018-07-27T10:34:55.988Z,1014.40
2018-07-27T10:35:55.984Z,1014.36
2018-07-27T10:36:55.971Z,1014.42
2018-07-27T10:37:55.964Z,1014.44
2018-07-27T10:38:55.958Z,1014.44
2018-07-27T10:39:55.946Z,1014.36
2018-07-27T10:40:55.944Z,1014.41
2018-07-27T10:41:55.929Z,1014.46
2018-07-27T10:42:55.929Z,1014.43
2018-07-27T10:43:55.914Z,1014.46
2018-07-27T10:44:55.941Z,1014.49
2018-07-27T10:45:55.896Z,1014.51
2018-07-27T10:46:55.891Z,1014.45
2018-07-27T10:47:55.881Z,1014.39
2018-07-27T10:48:57.290Z,1014.54
2018-07-27T10:49:56.081Z,1014.53
2018-07-27T10:50:55.858Z,1014.50
2018-07-27T10:51:55.851Z,1014.51
2018-07-27T10:52:55.843Z,1014.51
2018-07-27T10:55:20.371Z,1014.34
2018-07-27T10:56:20.388Z,1014.51
2018-07-27T10:57:20.149Z,1014.46
2018-07-27T10:58:20.143Z,1014.48
2018-07-27T10:59:20.135Z,1014.47
2018-07-27T11:00:20.126Z,1014.39
2018-07-27T11:01:20.120Z,1014.56
2018-07-27T11:02:20.367Z,1014.57
2018-07-27T11:03:20.107Z,1014.44
2018-07-27T11:04:20.098Z,1014.49
2018-07-27T11:05:20.086Z,1014.50
2018-07-27T11:06:20.082Z,1014.49
2018-07-27T11:07:20.073Z,1014.45
2018-07-27T11:08:20.068Z,1014.56
2018-07-27T11:09:20.058Z,1014.69
2018-07-27T11:10:20.052Z,1014.68
2018-07-27T11:11:20.052Z,1014.68
2018-07-27T11:12:20.037Z,1014.71
2018-07-27T11:13:20.027Z,1014.75
2018-07-27T11:14:20.019Z,1014.80
2018-07-27T11:15:20.021Z,1014.88
2018-07-27T11:16:20.055Z,1014.89
2018-07-27T11:17:20.069Z,1014.88
2018-07-27T11:18:19.991Z,1014.93
2018-07-27T11:19:19.985Z,1015.02
2018-07-27T11:20:19.979Z,1015.08
2018-07-27T11:21:19.970Z,1014.99
2018-07-27T11:22:19.960Z,1015.00
2018-07-27T11:23:19.953Z,1015.06
2018-07-27T11:24:19.950Z,1014.97
2018-07-27T11:25:19.939Z,1015.04
2018-07-27T11:26:19.931Z,1015.12
2018-07-27T11:27:19.926Z,1015.04
2018-07-27T11:28:19.917Z,1015.07
2018-07-27T11:29:19.912Z,1014.98
2018-07-27T11:30:19.908Z,1014.97
2018-07-27T11:31:19.905Z,1015.00
2018-07-27T11:32:19.890Z,1015.02
2018-07-27T11:33:20.091Z,1015.02
2018-07-27T11:34:20.078Z,1014.99
2018-07-27T11:35:19.869Z,1014.86
2018-07-27T11:36:19.867Z,1014.91
2018-07-27T11:37:19.908Z,1014.92
2018-07-27T11:38:19.850Z,1014.86
2018-07-27T11:39:19.844Z,1014.83
2018-07-27T11:40:20.039Z,1014.87
2018-07-27T11:41:19.830Z,1014.95
2018-07-27T11:42:20.089Z,1014.76
2018-07-27T11:43:19.818Z,1014.79
2018-07-27T11:44:19.811Z,1014.84
2018-07-27T11:45:19.807Z,1014.79
2018-07-27T11:46:19.998Z,1014.77
2018-07-27T11:47:19.789Z,1014.74
2018-07-27T11:48:19.782Z,1014.66
2018-07-27T11:49:19.829Z,1014.63
2018-07-27T11:50:19.771Z,1014.66
2018-07-27T11:51:19.768Z,1014.66
2018-07-27T11:52:19.962Z,1014.52
2018-07-27T11:53:19.756Z,1014.66
2018-07-27T11:54:19.744Z,1014.64
2018-07-27T11:55:19.946Z,1014.59
2018-07-27T11:56:19.733Z,1014.63
2018-07-27T11:57:19.728Z,1014.58
2018-07-27T11:58:19.720Z,1014.62
2018-07-27T11:59:19.713Z,1014.62
2018-07-27T12:00:19.719Z,1014.60
2018-07-27T12:01:19.701Z,1014.65
2018-07-27T12:02:19.693Z,1014.64
2018-07-27T12:03:19.686Z,1014.54
2018-07-27T12:04:19.679Z,1014.57
2018-07-27T12:05:19.674Z,1014.46
2018-07-27T12:06:19.668Z,1014.42
2018-07-27T12:07:19.661Z,1014.30
2018-07-27T12:08:19.655Z,1014.27
2018-07-27T12:09:19.648Z,1014.35
2018-07-27T12:10:19.639Z,1014.34
2018-07-27T12:11:19.635Z,1014.40
2018-07-27T12:12:19.632Z,1014.45
2018-07-27T12:13:19.624Z,1014.39
2018-07-27T12:14:19.766Z,1014.34
2018-07-27T12:15:19.872Z,1014.28
2018-07-27T12:16:19.605Z,1014.24
2018-07-27T12:17:19.605Z,1014.24
2018-07-27T12:18:19.589Z,1014.22
2018-07-27T12:19:19.582Z,1014.20
2018-07-27T12:20:19.575Z,1014.17
2018-07-27T12:21:19.682Z,1014.16
2018-07-27T12:22:19.560Z,1014.20
2018-07-27T12:23:19.554Z,1014.16
2018-07-27T12:24:19.546Z,1014.13
2018-07-27T12:25:19.746Z,1014.15
2018-07-27T12:26:19.736Z,1014.21
2018-07-27T12:27:19.732Z,1014.21
2018-07-27T12:28:22.346Z,1014.24
2018-07-27T12:29:19.720Z,1014.31
2018-07-27T12:30:19.714Z,1014.32
2018-07-27T12:31:19.503Z,1014.33
2018-07-27T12:32:19.496Z,1014.31
2018-07-27T12:33:19.492Z,1014.30
2018-07-27T12:34:19.484Z,1014.31
2018-07-27T12:35:19.477Z,1014.22
2018-07-27T12:36:19.720Z,1014.38
2018-07-27T12:37:19.466Z,1014.39
2018-07-27T12:38:19.460Z,1014.40
2018-07-27T12:39:19.453Z,1014.47
2018-07-27T12:40:19.449Z,1014.49
2018-07-27T12:41:19.441Z,1013.17
2018-07-27T12:42:19.432Z,1014.07
2018-07-27T12:43:19.435Z,1013.24
2018-07-27T12:44:19.419Z,1014.24
2018-07-27T12:45:19.416Z,1014.17
2018-07-27T12:46:19.415Z,1014.33
2018-07-27T12:47:19.415Z,1014.45
2018-07-27T12:48:19.390Z,1014.39